Time,TemperatureF,DewpointF,PressureIn,WindDirection,WindDirectionDegrees,WindSpeedMPH,WindSpeedGustMPH,Humidity,HourlyPrecipIn,Conditions,Clouds,dailyrainin,SoftwareType,DateUTC
2013-09-08 00:00:00,54.9,52.3,30.02,North,0,0.0,0.0,91,0.00,,SKC,0.00,VWS V13.00,2013-09-08 06:00:00,
2013-09-08 00:05:00,54.7,52.1,30.02,North,0,0.0,0.0,91,0.00,,SKC,0.00,VWS V13.00,2013-09-08 06:05:00,
2013-09-08 00:10:00,54.7,52.1,30.02,North,0,0.0,0.0,91,0.00,,SKC,0.00,VWS V13.00,2013-09-08 06:10:00,
2013-09-08 00:15:00,54.5,51.9,30.02,North,0,0.0,0.0,91,0.00,,SKC,0.00,VWS V13.00,2013-09-08 06:15:00,
2013-09-08 00:20:00,54.3,51.8,30.02,North,0,0.0,0.0,91,0.00,,SKC,0.00,VWS V13.00,2013-09-08 06:20:00,
2013-09-08 00:25:00,54.3,51.8,30.02,North,0,0.0,0.0,91,0.00,,SKC,0.00,VWS V13.00,2013-09-08 06:25:00,
2013-09-08 00:30:00,54.3,51.8,30.02,North,0,0.0,0.0,91,0.00,,SKC,0.00,VWS V13.00,2013-09-08 06:30:00,
2013-09-08 00:35:00,54.1,51.3,30.02,North,0,0.0,0.0,90,0.00,,SKC,0.00,VWS V13.00,2013-09-08 06:35:00,
2013-09-08 00:41:00,54.0,51.1,30.02,North,0,0.0,0.0,90,0.00,,SKC,0.00,VWS V13.00,2013-09-08 06:41:00,
2013-09-08 00:46:00,53.8,50.9,30.02,North,0,0.0,0.0,90,0.00,,SKC,0.00,VWS V13.00,2013-09-08 06:46:00,
2013-09-08 00:51:00,53.8,50.9,30.02,North,0,0.0,0.0,90,0.00,,SKC,0.00,VWS V13.00,2013-09-08 06:51:00,
2013-09-08 00:56:00,53.6,50.7,30.02,North,0,0.0,0.0,90,0.00,,SKC,0.00,VWS V13.00,2013-09-08 06:56:00,
2013-09-08 01:01:00,53.4,50.9,30.02,North,0,0.0,0.0,91,0.00,,SKC,0.00,VWS V13.00,2013-09-08 07:01:00,
2013-09-08 01:06:00,53.2,50.7,30.02,North,0,0.0,0.0,91,0.00,,SKC,0.00,VWS V13.00,2013-09-08 07:06:00,
2013-09-08 01:11:00,53.4,50.9,30.02,North,0,0.0,0.0,91,0.00,,SKC,0.00,VWS V13.00,2013-09-08 07:11:00,
2013-09-08 01:16:00,53.4,50.9,30.02,North,0,0.0,0.0,91,0.00,,SKC,0.00,VWS V13.00,2013-09-08 07:16:00,
2013-09-08 01:21:00,53.4,50.9,30.02,North,0,0.0,0.0,91,0.00,,SKC,0.00,VWS V13.00,2013-09-08 07:21:00,
2013-09-08 01:26:00,53.2,50.7,30.02,North,0,0.0,0.0,91,0.00,,SKC,0.00,VWS V13.00,2013-09-08 07:26:00,
2013-09-08 01:31:00,53.2,50.7,30.02,North,0,0.0,0.0,91,0.00,,SKC,0.00,VWS V13.00,2013-09-08 07:31:00,
2013-09-08 01:36:00,53.2,50.7,30.02,North,0,0.0,0.0,91,0.00,,SKC,0.00,VWS V13.00,2013-09-08 07:36:00,
2013-09-08 01:41:00,53.2,50.7,30.02,North,0,0.0,0.0,91,0.00,,SKC,0.00,VWS V13.00,2013-09-08 07:41:00,
2013-09-08 01:46:00,53.1,50.5,30.02,North,0,0.0,0.0,91,0.00,,SKC,0.00,VWS V13.00,2013-09-08 07:46:00,
2013-09-08 01:51:00,53.1,50.5,30.02,North,0,0.0,0.0,91,0.00,,SKC,0.00,VWS V13.00,2013-09-08 07:51:00,
2013-09-08 01:56:00,53.1,50.5,30.02,North,0,0.0,0.0,91,0.00,,SKC,0.00,VWS V13.00,2013-09-08 07:56:00,
2013-09-08 02:01:00,53.1,50.5,30.02,North,0,0.0,0.0,91,0.00,,SKC,0.00,VWS V13.00,2013-09-08 08:01:00,
2013-09-08 02:06:00,53.1,50.5,30.02,North,0,0.0,0.0,91,0.00,,SKC,0.00,VWS V13.00,2013-09-08 08:06:00,
2013-09-08 02:11:00,53.2,50.7,30.02,North,0,0.0,0.0,91,0.00,,SKC,0.00,VWS V13.00,2013-09-08 08:11:00,
2013-09-08 02:16:00,53.2,50.7,30.02,North,0,0.0,0.0,91,0.00,,SKC,0.00,VWS V13.00,2013-09-08 08:16:00,
2013-09-08 02:21:00,53.4,50.9,30.02,North,0,0.0,0.0,91,0.00,,SKC,0.00,VWS V13.00,2013-09-08 08:21:00,
2013-09-08 02:26:00,53.4,50.9,30.02,North,0,0.0,0.0,91,0.00,,SKC,0.00,VWS V13.00,2013-09-08 08:26:00,
2013-09-08 02:31:00,53.4,50.9,30.02,North,0,0.0,0.0,91,0.00,,SKC,0.00,VWS V13.00,2013-09-08 08:31:00,
2013-09-08 02:36:00,53.4,50.9,30.02,North,0,0.0,0.0,91,0.00,,SKC,0.00,VWS V13.00,2013-09-08 08:36:00,
2013-09-08 02:41:00,53.4,50.9,30.02,North,0,0.0,0.0,91,0.00,,SKC,0.00,VWS V13.00,2013-09-08 08:41:00,
2013-09-08 02:46:00,53.6,51.0,30.02,North,0,0.0,0.0,91,0.00,,SKC,0.00,VWS V13.00,2013-09-08 08:46:00,
2013-09-08 02:51:00,53.6,51.0,30.02,North,0,0.0,0.0,91,0.00,,SKC,0.00,VWS V13.00,2013-09-08 08:51:00,
2013-09-08 02:56:00,53.6,51.0,30.02,North,0,0.0,0.0,91,0.00,,SKC,0.00,VWS V13.00,2013-09-08 08:56:00,
2013-09-08 03:01:00,53.6,51.0,30.02,North,0,0.0,0.0,91,0.00,,SKC,0.00,VWS V13.00,2013-09-08 09:01:00,
2013-09-08 03:06:00,53.6,51.0,30.02,North,0,0.0,0.0,91,0.00,,SKC,0.00,VWS V13.00,2013-09-08 09:06:00,
2013-09-08 03:11:00,53.6,51.0,30.02,North,0,0.0,0.0,91,0.00,,SKC,0.00,VWS V13.00,2013-09-08 09:11:00,
2013-09-08 03:16:00,53.6,51.0,30.02,North,0,0.0,0.0,91,0.00,,SKC,0.00,VWS V13.00,2013-09-08 09:16:00,
2013-09-08 03:21:00,53.6,51.3,30.02,North,0,0.0,0.0,92,0.00,,SKC,0.00,VWS V13.00,2013-09-08 09:21:00,
2013-09-08 03:26:00,53.8,51.5,30.02,North,0,0.0,0.0,92,0.00,,SKC,0.00,VWS V13.00,2013-09-08 09:26:00,
2013-09-08 03:31:00,54.0,51.7,30.02,North,0,0.0,0.0,92,0.00,,SKC,0.00,VWS V13.00,2013-09-08 09:31:00,
2013-09-08 03:36:00,54.1,52.2,30.02,North,0,0.0,0.0,93,0.00,,SKC,0.00,VWS V13.00,2013-09-08 09:36:00,
2013-09-08 03:41:00,54.3,52.3,30.02,North,0,0.0,0.0,93,0.00,,SKC,0.00,VWS V13.00,2013-09-08 09:41:00,
2013-09-08 03:46:00,54.3,52.0,30.02,North,0,0.0,0.0,92,0.00,,SKC,0.00,VWS V13.00,2013-09-08 09:46:00,
2013-09-08 03:51:00,54.3,52.0,30.02,North,0,0.0,0.0,92,0.00,,SKC,0.00,VWS V13.00,2013-09-08 09:51:00,
2013-09-08 03:56:00,54.3,52.3,30.02,North,0,0.0,0.0,93,0.00,,SKC,0.00,VWS V13.00,2013-09-08 09:56:00,
2013-09-08 04:01:00,54.3,52.3,30.02,North,0,0.0,0.0,93,0.00,,SKC,0.00,VWS V13.00,2013-09-08 10:01:00,
2013-09-08 04:06:00,54.3,52.3,30.02,North,0,0.0,0.0,93,0.00,,SKC,0.00,VWS V13.00,2013-09-08 10:06:00,
2013-09-08 04:11:00,54.3,52.3,30.02,North,0,0.0,0.0,93,0.00,,SKC,0.00,VWS V13.00,2013-09-08 10:11:00,
2013-09-08 04:16:00,54.5,52.5,30.02,North,0,0.0,0.0,93,0.00,,SKC,0.00,VWS V13.00,2013-09-08 10:16:00,
2013-09-08 04:21:00,54.5,52.5,30.02,North,0,0.0,0.0,93,0.00,,SKC,0.00,VWS V13.00,2013-09-08 10:21:00,
2013-09-08 04:26:00,54.5,52.5,30.02,North,0,0.0,0.0,93,0.00,,SKC,0.00,VWS V13.00,2013-09-08 10:26:00,
2013-09-08 04:31:00,54.3,52.3,30.02,North,0,0.0,0.0,93,0.00,,SKC,0.00,VWS V13.00,2013-09-08 10:31:00,
2013-09-08 04:36:00,54.5,52.5,30.02,North,0,0.0,0.0,93,0.00,,SKC,0.00,VWS V13.00,2013-09-08 10:36:00,
2013-09-08 04:41:00,54.3,52.3,30.02,North,0,0.0,0.0,93,0.00,,SKC,0.00,VWS V13.00,2013-09-08 10:41:00,
2013-09-08 04:46:00,54.3,52.3,29.99,North,0,0.0,0.0,93,0.00,,SKC,0.00,VWS V13.00,2013-09-08 10:46:00,
2013-09-08 04:51:00,54.3,52.3,29.99,North,0,0.0,0.0,93,0.00,,SKC,0.00,VWS V13.00,2013-09-08 10:51:00,
2013-09-08 04:56:00,54.3,52.3,29.99,North,0,0.0,0.0,93,0.00,,SKC,0.00,VWS V13.00,2013-09-08 10:56:00,
2013-09-08 05:01:00,54.5,52.5,29.99,North,0,0.0,0.0,93,0.00,,SKC,0.00,VWS V13.00,2013-09-08 11:01:00,
2013-09-08 05:06:00,54.5,52.5,29.99,North,0,0.0,0.0,93,0.00,,SKC,0.00,VWS V13.00,2013-09-08 11:06:00,
2013-09-08 05:11:00,54.3,52.3,29.99,North,0,0.0,0.0,93,0.00,,SKC,0.00,VWS V13.00,2013-09-08 11:11:00,
2013-09-08 05:16:00,54.5,52.5,29.99,North,0,0.0,0.0,93,0.00,,SKC,0.00,VWS V13.00,2013-09-08 11:16:00,
2013-09-08 05:21:00,54.5,52.5,29.99,North,0,0.0,0.0,93,0.00,,SKC,0.00,VWS V13.00,2013-09-08 11:21:00,
2013-09-08 05:26:00,54.5,52.5,29.99,North,0,0.0,0.0,93,0.00,,SKC,0.00,VWS V13.00,2013-09-08 11:26:00,
2013-09-08 05:31:00,54.5,52.5,30.02,North,0,0.0,0.0,93,0.00,,SKC,0.00,VWS V13.00,2013-09-08 11:31:00,
2013-09-08 05:36:00,54.5,52.5,30.02,North,0,0.0,0.0,93,0.00,,SKC,0.00,VWS V13.00,2013-09-08 11:36:00,
2013-09-08 05:41:00,54.5,52.5,30.02,North,0,0.0,0.0,93,0.00,,SKC,0.00,VWS V13.00,2013-09-08 11:41:00,
2013-09-08 05:46:00,54.5,52.5,30.02,North,0,0.0,0.0,93,0.00,,SKC,0.00,VWS V13.00,2013-09-08 11:46:00,
2013-09-08 05:51:00,54.5,52.5,30.02,North,0,0.0,0.0,93,0.00,,SKC,0.00,VWS V13.00,2013-09-08 11:51:00,
2013-09-08 05:56:00,54.5,52.5,30.02,North,0,0.0,0.0,93,0.00,,SKC,0.00,VWS V13.00,2013-09-08 11:56:00,
2013-09-08 06:01:00,54.5,52.5,30.02,North,0,0.0,0.0,93,0.00,,SKC,0.00,VWS V13.00,2013-09-08 12:01:00,
2013-09-08 06:06:00,54.5,52.5,30.02,North,0,0.0,0.0,93,0.00,,SKC,0.00,VWS V13.00,2013-09-08 12:06:00,
2013-09-08 06:12:00,54.5,52.5,30.02,North,0,0.0,0.0,93,0.00,,SKC,0.00,VWS V13.00,2013-09-08 12:12:00,
2013-09-08 06:17:00,54.5,52.5,30.02,North,0,0.0,0.0,93,0.00,,SKC,0.00,VWS V13.00,2013-09-08 12:17:00,
2013-09-08 06:22:00,54.7,52.7,30.02,North,0,0.0,0.0,93,0.00,,SKC,0.00,VWS V13.00,2013-09-08 12:22:00,
2013-09-08 06:27:00,54.7,52.7,30.02,North,0,0.0,0.0,93,0.00,,SKC,0.00,VWS V13.00,2013-09-08 12:27:00,
2013-09-08 06:32:00,54.5,52.5,30.02,North,0,0.0,0.0,93,0.00,,SKC,0.00,VWS V13.00,2013-09-08 12:32:00,
2013-09-08 06:37:00,54.7,52.7,30.02,North,0,0.0,0.0,93,0.00,,SKC,0.00,VWS V13.00,2013-09-08 12:37:00,
2013-09-08 06:42:00,54.7,52.7,30.02,North,0,0.0,0.0,93,0.00,,SKC,0.00,VWS V13.00,2013-09-08 12:42:00,
2013-09-08 06:47:00,54.7,53.0,30.02,North,0,0.0,0.0,94,0.00,,SKC,0.00,VWS V13.00,2013-09-08 12:47:00,
2013-09-08 06:52:00,54.7,52.7,30.02,North,0,0.0,0.0,93,0.00,,SKC,0.00,VWS V13.00,2013-09-08 12:52:00,
2013-09-08 06:57:00,54.7,52.7,30.02,North,0,0.0,0.0,93,0.00,,SKC,0.00,VWS V13.00,2013-09-08 12:57:00,
2013-09-08 07:02:00,54.5,52.8,29.99,North,0,0.0,0.0,94,0.00,,SKC,0.00,VWS V13.00,2013-09-08 13:02:00,
2013-09-08 07:07:00,54.5,52.5,29.99,North,0,0.0,0.0,93,0.00,,SKC,0.00,VWS V13.00,2013-09-08 13:07:00,
2013-09-08 07:12:00,54.5,52.8,29.99,North,0,0.0,0.0,94,0.00,,SKC,0.00,VWS V13.00,2013-09-08 13:12:00,
2013-09-08 07:17:00,54.5,52.8,29.99,North,0,0.0,0.0,94,0.00,,SKC,0.00,VWS V13.00,2013-09-08 13:17:00,
2013-09-08 07:22:00,54.5,52.8,29.99,North,0,0.0,0.0,94,0.00,,SKC,0.00,VWS V13.00,2013-09-08 13:22:00,
2013-09-08 07:27:00,54.7,53.0,29.99,North,0,0.0,0.0,94,0.00,,SKC,0.00,VWS V13.00,2013-09-08 13:27:00,
2013-09-08 07:32:00,54.7,53.0,30.02,North,0,0.0,0.0,94,0.00,,SKC,0.00,VWS V13.00,2013-09-08 13:32:00,
2013-09-08 07:37:00,54.5,52.8,30.02,North,0,0.0,0.0,94,0.00,,SKC,0.00,VWS V13.00,2013-09-08 13:37:00,
2013-09-08 07:42:00,54.7,53.0,30.02,North,0,0.0,0.0,94,0.00,,SKC,0.00,VWS V13.00,2013-09-08 13:42:00,
2013-09-08 07:47:00,54.7,53.0,30.02,North,0,0.0,0.0,94,0.00,,SKC,0.00,VWS V13.00,2013-09-08 13:47:00,
2013-09-08 07:52:00,54.7,53.0,30.02,North,0,0.0,0.0,94,0.00,,SKC,0.00,VWS V13.00,2013-09-08 13:52:00,
2013-09-08 07:57:00,54.7,53.0,30.02,North,0,0.0,0.0,94,0.00,,SKC,0.00,VWS V13.00,2013-09-08 13:57:00,
2013-09-08 08:02:00,54.5,52.8,30.02,North,0,0.0,0.0,94,0.00,,SKC,0.00,VWS V13.00,2013-09-08 14:02:00,
2013-09-08 08:07:00,54.5,52.8,30.02,North,0,0.0,0.0,94,0.00,,SKC,0.00,VWS V13.00,2013-09-08 14:07:00,
2013-09-08 08:12:00,54.7,53.0,30.02,North,0,0.0,0.0,94,0.00,,SKC,0.00,VWS V13.00,2013-09-08 14:12:00,
2013-09-08 08:17:00,54.7,53.0,30.02,North,0,0.0,0.0,94,0.00,,SKC,0.00,VWS V13.00,2013-09-08 14:17:00,
2013-09-08 08:22:00,54.7,53.0,30.02,North,0,0.0,0.0,94,0.00,,SKC,0.00,VWS V13.00,2013-09-08 14:22:00,
2013-09-08 08:27:00,54.9,53.2,30.02,North,0,0.0,0.0,94,0.00,,SKC,0.00,VWS V13.00,2013-09-08 14:27:00,
2013-09-08 08:32:00,54.9,53.2,30.02,North,0,0.0,0.0,94,0.00,,SKC,0.00,VWS V13.00,2013-09-08 14:32:00,
2013-09-08 08:37:00,54.9,53.2,30.02,North,0,0.0,0.0,94,0.00,,SKC,0.00,VWS V13.00,2013-09-08 14:37:00,
2013-09-08 08:42:00,54.9,53.2,30.02,North,0,0.0,0.0,94,0.00,,SKC,0.00,VWS V13.00,2013-09-08 14:42:00,
2013-09-08 08:47:00,54.9,53.2,30.02,North,0,0.0,0.0,94,0.00,,SKC,0.00,VWS V13.00,2013-09-08 14:47:00,
2013-09-08 08:52:00,54.9,53.2,30.02,North,0,0.0,0.0,94,0.00,,SKC,0.00,VWS V13.00,2013-09-08 14:52:00,
2013-09-08 08:57:00,55.0,53.3,30.02,North,0,0.0,0.0,94,0.00,,SKC,0.00,VWS V13.00,2013-09-08 14:57:00,
2013-09-08 09:02:00,55.0,53.3,30.02,North,0,0.0,0.0,94,0.00,,SKC,0.00,VWS V13.00,2013-09-08 15:02:00,
2013-09-08 09:07:00,55.0,53.3,30.02,North,0,0.0,0.0,94,0.00,,SKC,0.00,VWS V13.00,2013-09-08 15:07:00,
2013-09-08 09:12:00,55.2,53.5,30.02,North,0,0.0,0.0,94,0.00,,SKC,0.00,VWS V13.00,2013-09-08 15:12:00,
2013-09-08 09:17:00,55.4,53.7,30.02,North,0,0.0,0.0,94,0.00,,SKC,0.00,VWS V13.00,2013-09-08 15:17:00,
2013-09-08 09:22:00,55.6,53.9,30.02,North,0,0.0,0.0,94,0.00,,SKC,0.00,VWS V13.00,2013-09-08 15:22:00,
2013-09-08 09:27:00,55.8,54.1,30.02,North,0,0.0,0.0,94,0.00,,SKC,0.00,VWS V13.00,2013-09-08 15:27:00,
2013-09-08 09:32:00,56.1,54.4,30.02,North,0,0.0,0.0,94,0.00,,SKC,0.00,VWS V13.00,2013-09-08 15:32:00,
2013-09-08 09:37:00,56.1,54.4,30.02,North,0,0.0,0.0,94,0.00,,SKC,0.00,VWS V13.00,2013-09-08 15:37:00,
2013-09-08 09:42:00,56.3,54.6,30.02,North,0,0.0,0.0,94,0.00,,SKC,0.00,VWS V13.00,2013-09-08 15:42:00,
2013-09-08 09:47:00,56.5,54.8,30.02,North,0,0.0,0.0,94,0.00,,SKC,0.00,VWS V13.00,2013-09-08 15:47:00,
2013-09-08 09:52:00,56.7,55.0,30.02,North,0,0.0,0.0,94,0.00,,SKC,0.00,VWS V13.00,2013-09-08 15:52:00,
2013-09-08 09:57:00,56.7,55.0,30.02,North,0,0.0,0.0,94,0.00,,SKC,0.00,VWS V13.00,2013-09-08 15:57:00,
2013-09-08 10:02:00,56.5,54.5,30.02,North,0,0.0,0.0,93,0.00,,SKC,0.00,VWS V13.00,2013-09-08 16:02:00,
2013-09-08 10:07:00,56.3,54.3,30.02,North,0,0.0,0.0,93,0.00,,SKC,0.00,VWS V13.00,2013-09-08 16:07:00,
2013-09-08 10:12:00,56.1,53.8,30.02,North,0,0.0,0.0,92,0.00,,SKC,0.00,VWS V13.00,2013-09-08 16:12:00,
2013-09-08 10:17:00,55.8,53.5,30.02,North,0,0.0,0.0,92,0.00,,SKC,0.00,VWS V13.00,2013-09-08 16:17:00,
2013-09-08 10:22:00,55.4,52.8,30.02,North,0,0.0,0.0,91,0.00,,SKC,0.00,VWS V13.00,2013-09-08 16:22:00,
2013-09-08 10:27:00,55.4,52.8,30.02,North,0,0.0,0.0,91,0.00,,SKC,0.00,VWS V13.00,2013-09-08 16:27:00,
2013-09-08 10:32:00,55.2,52.6,30.02,North,0,0.0,0.0,91,0.00,,SKC,0.00,VWS V13.00,2013-09-08 16:32:00,
2013-09-08 10:37:00,55.2,52.6,30.02,North,0,0.0,0.0,91,0.00,,SKC,0.00,VWS V13.00,2013-09-08 16:37:00,
2013-09-08 10:42:00,55.2,52.6,30.02,North,0,0.0,0.0,91,0.00,,SKC,0.00,VWS V13.00,2013-09-08 16:42:00,
2013-09-08 10:47:00,55.2,52.9,30.02,North,0,0.0,0.0,92,0.00,,SKC,0.00,VWS V13.00,2013-09-08 16:47:00,
2013-09-08 10:52:00,55.2,52.9,30.02,North,0,0.0,0.0,92,0.00,,SKC,0.00,VWS V13.00,2013-09-08 16:52:00,
2013-09-08 10:57:00,55.0,52.5,30.02,North,0,0.0,0.0,91,0.00,,SKC,0.00,VWS V13.00,2013-09-08 16:57:00,
2013-09-08 11:02:00,54.9,52.3,30.02,North,0,0.0,0.0,91,0.00,,SKC,0.00,VWS V13.00,2013-09-08 17:02:00,
2013-09-08 11:07:00,54.9,52.3,30.02,North,0,0.0,0.0,91,0.00,,SKC,0.00,VWS V13.00,2013-09-08 17:07:00,
2013-09-08 11:12:00,54.5,51.9,30.02,North,0,0.0,0.0,91,0.00,,SKC,0.00,VWS V13.00,2013-09-08 17:12:00,
2013-09-08 11:17:00,54.5,51.9,30.02,North,0,0.0,0.0,91,0.00,,SKC,0.00,VWS V13.00,2013-09-08 17:17:00,
2013-09-08 11:22:00,54.5,51.9,30.02,North,0,0.0,0.0,91,0.00,,SKC,0.00,VWS V13.00,2013-09-08 17:22:00,
2013-09-08 11:27:00,54.5,51.9,30.02,North,0,0.0,0.0,91,0.00,,SKC,0.00,VWS V13.00,2013-09-08 17:27:00,
2013-09-08 11:32:00,54.9,52.3,30.02,North,0,0.0,0.0,91,0.00,,SKC,0.00,VWS V13.00,2013-09-08 17:32:00,
2013-09-08 11:37:00,54.9,52.6,30.02,North,0,0.0,0.0,92,0.00,,SKC,0.00,VWS V13.00,2013-09-08 17:37:00,
2013-09-08 11:42:00,55.0,52.5,30.02,North,0,0.0,0.0,91,0.00,,SKC,0.00,VWS V13.00,2013-09-08 17:42:00,
2013-09-08 11:47:00,54.9,52.3,30.02,North,0,0.0,0.0,91,0.00,,SKC,0.00,VWS V13.00,2013-09-08 17:47:00,
2013-09-08 11:52:00,55.2,52.6,30.02,North,0,0.0,0.0,91,0.00,,SKC,0.00,VWS V13.00,2013-09-08 17:52:00,
2013-09-08 11:57:00,55.2,52.6,30.02,North,0,0.0,0.0,91,0.00,,SKC,0.00,VWS V13.00,2013-09-08 17:57:00,
2013-09-08 12:02:00,55.0,52.5,30.02,North,0,0.0,0.0,91,0.00,,SKC,0.00,VWS V13.00,2013-09-08 18:02:00,
2013-09-08 12:07:00,55.2,52.6,30.02,North,0,0.0,0.0,91,0.00,,SKC,0.00,VWS V13.00,2013-09-08 18:07:00,
2013-09-08 12:13:00,55.0,52.5,30.02,North,0,0.0,0.0,91,0.00,,SKC,0.00,VWS V13.00,2013-09-08 18:13:00,
2013-09-08 12:18:00,55.2,52.6,30.02,North,0,0.0,0.0,91,0.00,,SKC,0.00,VWS V13.00,2013-09-08 18:18:00,
2013-09-08 12:23:00,55.6,53.0,30.02,North,0,0.0,0.0,91,0.00,,SKC,0.00,VWS V13.00,2013-09-08 18:23:00,
2013-09-08 12:28:00,55.6,53.0,30.02,North,0,0.0,0.0,91,0.00,,SKC,0.00,VWS V13.00,2013-09-08 18:28:00,
2013-09-08 12:33:00,55.6,52.7,30.02,North,0,0.0,0.0,90,0.00,,SKC,0.00,VWS V13.00,2013-09-08 18:33:00,
2013-09-08 12:38:00,55.8,52.9,30.02,North,0,0.0,0.0,90,0.00,,SKC,0.00,VWS V13.00,2013-09-08 18:38:00,
2013-09-08 12:43:00,56.1,53.5,30.02,North,0,0.0,0.0,91,0.00,,SKC,0.00,VWS V13.00,2013-09-08 18:43:00,
2013-09-08 12:48:00,56.3,53.4,30.02,North,0,0.0,0.0,90,0.00,,SKC,0.00,VWS V13.00,2013-09-08 18:48:00,
2013-09-08 12:53:00,56.3,53.7,30.02,North,0,0.0,0.0,91,0.00,,SKC,0.00,VWS V13.00,2013-09-08 18:53:00,
2013-09-08 12:58:00,56.7,54.4,30.02,North,0,0.0,0.0,92,0.00,,SKC,0.00,VWS V13.00,2013-09-08 18:58:00,
2013-09-08 13:03:00,57.2,54.9,30.02,North,0,0.0,0.0,92,0.00,,SKC,0.00,VWS V13.00,2013-09-08 19:03:00,
2013-09-08 13:08:00,57.6,55.3,30.02,North,0,0.0,0.0,92,0.00,,SKC,0.00,VWS V13.00,2013-09-08 19:08:00,
2013-09-08 13:13:00,57.2,54.0,29.99,North,0,0.0,0.0,89,0.00,,SKC,0.00,VWS V13.00,2013-09-08 19:13:00,
2013-09-08 13:18:00,57.2,54.3,29.99,North,0,0.0,0.0,90,0.00,,SKC,0.00,VWS V13.00,2013-09-08 19:18:00,
2013-09-08 13:23:00,57.0,54.4,29.99,North,0,0.0,0.0,91,0.00,,SKC,0.00,VWS V13.00,2013-09-08 19:23:00,
2013-09-08 13:28:00,56.7,53.5,29.99,North,0,0.0,0.0,89,0.00,,SKC,0.00,VWS V13.00,2013-09-08 19:28:00,
2013-09-08 13:33:00,56.7,53.8,29.99,North,0,0.0,0.0,90,0.00,,SKC,0.00,VWS V13.00,2013-09-08 19:33:00,
2013-09-08 13:38:00,56.5,53.3,29.99,North,0,0.0,0.0,89,0.00,,SKC,0.00,VWS V13.00,2013-09-08 19:38:00,
2013-09-08 13:43:00,56.8,53.6,29.99,North,0,0.0,0.0,89,0.00,,SKC,0.00,VWS V13.00,2013-09-08 19:43:00,
2013-09-08 13:48:00,57.2,53.4,29.99,North,0,0.0,0.0,87,0.00,,SKC,0.00,VWS V13.00,2013-09-08 19:48:00,
2013-09-08 13:53:00,57.2,52.4,29.99,North,0,0.0,0.0,84,0.00,,SKC,0.00,VWS V13.00,2013-09-08 19:53:00,
2013-09-08 13:58:00,57.7,53.3,29.99,North,0,0.0,0.0,85,0.00,,SKC,0.00,VWS V13.00,2013-09-08 19:58:00,
2013-09-08 14:03:00,57.9,53.1,29.99,North,0,0.0,0.0,84,0.00,,SKC,0.00,VWS V13.00,2013-09-08 20:03:00,
2013-09-08 14:08:00,58.3,53.2,29.99,North,0,0.0,0.0,83,0.00,,SKC,0.00,VWS V13.00,2013-09-08 20:08:00,
2013-09-08 14:13:00,58.5,52.7,29.99,North,0,0.0,0.0,81,0.00,,SKC,0.00,VWS V13.00,2013-09-08 20:13:00,
2013-09-08 14:18:00,58.8,52.0,29.99,North,0,0.0,0.0,78,0.00,,SKC,0.00,VWS V13.00,2013-09-08 20:18:00,
2013-09-08 14:23:00,59.2,52.7,29.99,North,0,0.0,0.0,79,0.00,,SKC,0.00,VWS V13.00,2013-09-08 20:23:00,
2013-09-08 14:28:00,59.5,53.0,29.99,North,0,0.0,0.0,79,0.00,,SKC,0.00,VWS V13.00,2013-09-08 20:28:00,
2013-09-08 14:33:00,59.7,51.4,29.99,North,0,0.0,0.0,74,0.00,,SKC,0.00,VWS V13.00,2013-09-08 20:33:00,
2013-09-08 14:38:00,60.3,53.0,29.99,North,0,0.0,0.0,77,0.00,,SKC,0.00,VWS V13.00,2013-09-08 20:38:00,
2013-09-08 14:43:00,60.8,53.5,29.99,North,0,0.0,0.0,77,0.00,,SKC,0.00,VWS V13.00,2013-09-08 20:43:00,
2013-09-08 14:48:00,60.6,51.9,29.99,North,0,0.0,0.0,73,0.00,,SKC,0.00,VWS V13.00,2013-09-08 20:48:00,
2013-09-08 14:53:00,61.0,52.3,29.99,North,0,0.0,0.0,73,0.00,,SKC,0.00,VWS V13.00,2013-09-08 20:53:00,
2013-09-08 14:58:00,61.3,52.6,29.99,North,0,0.0,0.0,73,0.00,,SKC,0.00,VWS V13.00,2013-09-08 20:58:00,
2013-09-08 15:03:00,61.3,52.2,29.99,North,0,0.0,0.0,72,0.00,,SKC,0.00,VWS V13.00,2013-09-08 21:03:00,
2013-09-08 15:08:00,61.7,51.4,29.99,North,0,0.0,0.0,69,0.00,,SKC,0.00,VWS V13.00,2013-09-08 21:08:00,
2013-09-08 15:13:00,61.7,49.8,29.96,North,0,0.0,0.0,65,0.00,,SKC,0.00,VWS V13.00,2013-09-08 21:13:00,
2013-09-08 15:18:00,62.2,52.0,29.96,North,0,0.0,0.0,69,0.00,,SKC,0.00,VWS V13.00,2013-09-08 21:18:00,
2013-09-08 15:23:00,62.8,52.5,29.96,North,0,0.0,0.0,69,0.00,,SKC,0.00,VWS V13.00,2013-09-08 21:23:00,
2013-09-08 15:28:00,63.1,52.8,29.96,North,0,0.0,0.0,69,0.00,,SKC,0.00,VWS V13.00,2013-09-08 21:28:00,
2013-09-08 15:33:00,63.1,50.8,29.96,North,0,0.0,0.0,64,0.00,,SKC,0.00,VWS V13.00,2013-09-08 21:33:00,
2013-09-08 15:38:00,63.7,52.5,29.96,North,0,0.0,0.0,67,0.00,,SKC,0.00,VWS V13.00,2013-09-08 21:38:00,
2013-09-08 15:43:00,63.9,51.9,29.96,North,0,0.0,0.0,65,0.00,,SKC,0.00,VWS V13.00,2013-09-08 21:43:00,
2013-09-08 15:48:00,63.9,51.5,29.96,North,0,0.0,0.0,64,0.00,,SKC,0.00,VWS V13.00,2013-09-08 21:48:00,
2013-09-08 15:53:00,63.5,51.1,29.96,North,0,0.0,0.0,64,0.00,,SKC,0.00,VWS V13.00,2013-09-08 21:53:00,
2013-09-08 15:58:00,63.5,52.0,29.96,North,0,0.0,0.0,66,0.00,,SKC,0.00,VWS V13.00,2013-09-08 21:58:00,
2013-09-08 16:03:00,63.1,51.2,29.96,North,0,0.0,0.0,65,0.00,,SKC,0.00,VWS V13.00,2013-09-08 22:03:00,
2013-09-08 16:08:00,63.0,51.4,29.96,North,0,0.0,0.0,66,0.00,,SKC,0.00,VWS V13.00,2013-09-08 22:08:00,
2013-09-08 16:13:00,62.8,50.0,29.96,North,0,0.0,0.0,63,0.00,,SKC,0.00,VWS V13.00,2013-09-08 22:13:00,
2013-09-08 16:18:00,62.6,50.7,29.96,North,0,0.0,0.0,65,0.00,,SKC,0.00,VWS V13.00,2013-09-08 22:18:00,
2013-09-08 16:23:00,62.6,51.1,29.96,North,0,0.0,0.0,66,0.00,,SKC,0.00,VWS V13.00,2013-09-08 22:23:00,
2013-09-08 16:28:00,62.4,51.3,29.96,North,0,0.0,0.0,67,0.00,,SKC,0.00,VWS V13.00,2013-09-08 22:28:00,
2013-09-08 16:33:00,62.4,50.9,29.96,North,0,0.0,0.0,66,0.00,,SKC,0.00,VWS V13.00,2013-09-08 22:33:00,
2013-09-08 16:38:00,62.4,49.7,29.96,North,0,0.0,0.0,63,0.00,,SKC,0.00,VWS V13.00,2013-09-08 22:38:00,
2013-09-08 16:44:00,62.6,51.1,29.96,North,0,0.0,0.0,66,0.00,,SKC,0.00,VWS V13.00,2013-09-08 22:44:00,
2013-09-08 16:49:00,62.8,52.1,29.96,North,0,0.0,0.0,68,0.00,,SKC,0.00,VWS V13.00,2013-09-08 22:49:00,
2013-09-08 16:54:00,63.0,52.2,29.96,North,0,0.0,0.0,68,0.00,,SKC,0.00,VWS V13.00,2013-09-08 22:54:00,
2013-09-08 16:59:00,63.0,51.8,29.96,North,0,0.0,0.0,67,0.00,,SKC,0.00,VWS V13.00,2013-09-08 22:59:00,
2013-09-08 17:04:00,62.8,51.7,29.96,North,0,0.0,0.0,67,0.00,,SKC,0.00,VWS V13.00,2013-09-08 23:04:00,
2013-09-08 17:09:00,62.6,51.5,29.96,North,0,0.0,0.0,67,0.00,,SKC,0.00,VWS V13.00,2013-09-08 23:09:00,
2013-09-08 17:14:00,62.6,51.5,29.93,North,0,0.0,0.0,67,0.00,,SKC,0.00,VWS V13.00,2013-09-08 23:14:00,
2013-09-08 17:19:00,62.6,51.9,29.93,North,0,0.0,0.0,68,0.00,,SKC,0.00,VWS V13.00,2013-09-08 23:19:00,
2013-09-08 17:24:00,62.6,51.9,29.93,North,0,0.0,0.0,68,0.00,,SKC,0.00,VWS V13.00,2013-09-08 23:24:00,
2013-09-08 17:29:00,62.6,51.9,29.93,North,0,0.0,0.0,68,0.00,,SKC,0.00,VWS V13.00,2013-09-08 23:29:00,
2013-09-08 17:34:00,62.4,52.1,29.93,North,0,0.0,0.0,69,0.00,,SKC,0.00,VWS V13.00,2013-09-08 23:34:00,
2013-09-08 17:39:00,62.2,52.0,29.93,North,0,0.0,0.0,69,0.00,,SKC,0.00,VWS V13.00,2013-09-08 23:39:00,
2013-09-08 17:44:00,62.1,52.2,29.93,North,0,0.0,0.0,70,0.00,,SKC,0.00,VWS V13.00,2013-09-08 23:44:00,
2013-09-08 17:49:00,61.9,52.4,29.93,North,0,0.0,0.0,71,0.00,,SKC,0.00,VWS V13.00,2013-09-08 23:49:00,
2013-09-08 17:54:00,61.9,52.4,29.93,North,0,0.0,0.0,71,0.00,,SKC,0.00,VWS V13.00,2013-09-08 23:54:00,
2013-09-08 17:59:00,61.9,52.8,29.93,North,0,0.0,0.0,72,0.00,,SKC,0.00,VWS V13.00,2013-09-08 23:59:00,
2013-09-08 18:04:00,61.9,52.8,29.93,North,0,0.0,0.0,72,0.00,,SKC,0.00,VWS V13.00,2013-09-09 00:04:00,
2013-09-08 18:09:00,61.7,52.6,29.93,North,0,0.0,0.0,72,0.00,,SKC,0.00,VWS V13.00,2013-09-09 00:09:00,
2013-09-08 18:14:00,61.7,53.0,29.93,North,0,0.0,0.0,73,0.00,,SKC,0.00,VWS V13.00,2013-09-09 00:14:00,
2013-09-08 18:19:00,61.7,53.0,29.93,North,0,0.0,0.0,73,0.00,,SKC,0.00,VWS V13.00,2013-09-09 00:19:00,
2013-09-08 18:24:00,61.3,52.2,29.93,North,0,0.0,0.0,72,0.00,,SKC,0.00,VWS V13.00,2013-09-09 00:24:00,
2013-09-08 18:29:00,61.0,51.9,29.93,North,0,0.0,0.0,72,0.00,,SKC,0.00,VWS V13.00,2013-09-09 00:29:00,
2013-09-08 18:34:00,60.8,51.7,29.93,North,0,0.0,0.0,72,0.00,,SKC,0.00,VWS V13.00,2013-09-09 00:34:00,
2013-09-08 18:39:00,60.6,51.6,29.93,North,0,0.0,0.0,72,0.00,,SKC,0.00,VWS V13.00,2013-09-09 00:39:00,
2013-09-08 18:44:00,60.4,51.8,29.93,North,0,0.0,0.0,73,0.00,,SKC,0.00,VWS V13.00,2013-09-09 00:44:00,
2013-09-08 18:49:00,60.1,51.4,29.93,North,0,0.0,0.0,73,0.00,,SKC,0.00,VWS V13.00,2013-09-09 00:49:00,
2013-09-08 18:54:00,59.9,51.2,29.93,North,0,0.0,0.0,73,0.00,,SKC,0.00,VWS V13.00,2013-09-09 00:54:00,
2013-09-08 18:59:00,59.9,51.2,29.93,North,0,0.0,0.0,73,0.00,,SKC,0.00,VWS V13.00,2013-09-09 00:59:00,
2013-09-08 19:04:00,59.9,51.6,29.93,North,0,0.0,0.0,74,0.00,,SKC,0.00,VWS V13.00,2013-09-09 01:04:00,
2013-09-08 19:09:00,59.9,52.3,29.93,North,0,0.0,0.0,76,0.00,,SKC,0.00,VWS V13.00,2013-09-09 01:09:00,
2013-09-08 19:14:00,60.1,52.5,29.93,North,0,0.0,0.0,76,0.00,,SKC,0.00,VWS V13.00,2013-09-09 01:14:00,
2013-09-08 19:19:00,60.3,53.0,29.93,North,0,0.0,0.0,77,0.00,,SKC,0.00,VWS V13.00,2013-09-09 01:19:00,
2013-09-08 19:24:00,60.4,53.6,29.93,North,0,0.0,0.0,78,0.00,,SKC,0.00,VWS V13.00,2013-09-09 01:24:00,
2013-09-08 19:29:00,60.4,53.6,29.93,North,0,0.0,0.0,78,0.00,,SKC,0.00,VWS V13.00,2013-09-09 01:29:00,
2013-09-08 19:34:00,60.3,53.4,29.93,North,0,0.0,0.0,78,0.00,,SKC,0.00,VWS V13.00,2013-09-09 01:34:00,
2013-09-08 19:39:00,59.9,52.7,29.93,North,0,0.0,0.0,77,0.00,,SKC,0.00,VWS V13.00,2013-09-09 01:39:00,
2013-09-08 19:44:00,59.4,52.2,29.93,North,0,0.0,0.0,77,0.00,,SKC,0.00,VWS V13.00,2013-09-09 01:44:00,
2013-09-08 19:49:00,59.0,52.2,29.93,North,0,0.0,0.0,78,0.00,,SKC,0.00,VWS V13.00,2013-09-09 01:49:00,
2013-09-08 19:54:00,58.8,52.0,29.93,North,0,0.0,0.0,78,0.00,,SKC,0.00,VWS V13.00,2013-09-09 01:54:00,
2013-09-08 19:59:00,58.5,51.6,29.93,North,0,0.0,0.0,78,0.00,,SKC,0.00,VWS V13.00,2013-09-09 01:59:00,
2013-09-08 20:04:00,58.1,51.6,29.93,North,0,0.0,0.0,79,0.00,,SKC,0.00,VWS V13.00,2013-09-09 02:04:00,
2013-09-08 20:09:00,57.7,51.6,29.93,North,0,0.0,0.0,80,0.00,,SKC,0.00,VWS V13.00,2013-09-09 02:09:00,
2013-09-08 20:14:00,57.4,51.3,29.93,North,0,0.0,0.0,80,0.00,,SKC,0.00,VWS V13.00,2013-09-09 02:14:00,
2013-09-08 20:19:00,57.2,51.4,29.93,North,0,0.0,0.0,81,0.00,,SKC,0.00,VWS V13.00,2013-09-09 02:19:00,
2013-09-08 20:24:00,56.8,51.1,29.93,North,0,0.0,0.0,81,0.00,,SKC,0.00,VWS V13.00,2013-09-09 02:24:00,
2013-09-08 20:29:00,56.7,51.2,29.93,North,0,0.0,0.0,82,0.00,,SKC,0.00,VWS V13.00,2013-09-09 02:29:00,
2013-09-08 20:34:00,56.5,51.1,29.93,North,0,0.0,0.0,82,0.00,,SKC,0.00,VWS V13.00,2013-09-09 02:34:00,
2013-09-08 20:40:00,56.3,51.2,29.93,North,0,0.0,0.0,83,0.00,,SKC,0.00,VWS V13.00,2013-09-09 02:40:00,
2013-09-08 20:45:00,56.1,51.0,29.93,North,0,0.0,0.0,83,0.00,,SKC,0.00,VWS V13.00,2013-09-09 02:45:00,
2013-09-08 20:50:00,55.9,50.9,29.93,North,0,0.0,0.0,83,0.00,,SKC,0.00,VWS V13.00,2013-09-09 02:50:00,
2013-09-08 20:55:00,55.8,50.7,29.93,North,0,0.0,0.0,83,0.00,,SKC,0.00,VWS V13.00,2013-09-09 02:55:00,
2013-09-08 21:00:00,55.6,50.5,29.93,North,0,0.0,0.0,83,0.00,,SKC,0.00,VWS V13.00,2013-09-09 03:00:00,
2013-09-08 21:05:00,55.4,50.7,29.93,North,0,0.0,0.0,84,0.00,,SKC,0.00,VWS V13.00,2013-09-09 03:05:00,
2013-09-08 21:10:00,55.2,50.5,29.93,North,0,0.0,0.0,84,0.00,,SKC,0.00,VWS V13.00,2013-09-09 03:10:00,
2013-09-08 21:15:00,55.0,50.3,29.93,North,0,0.0,0.0,84,0.00,,SKC,0.00,VWS V13.00,2013-09-09 03:15:00,
2013-09-08 21:20:00,54.9,50.1,29.93,North,0,0.0,0.0,84,0.00,,SKC,0.00,VWS V13.00,2013-09-09 03:20:00,
2013-09-08 21:25:00,54.7,50.3,29.93,North,0,0.0,0.0,85,0.00,,SKC,0.00,VWS V13.00,2013-09-09 03:25:00,
2013-09-08 21:30:00,54.5,50.1,29.93,North,0,0.0,0.0,85,0.00,,SKC,0.00,VWS V13.00,2013-09-09 03:30:00,
2013-09-08 21:35:00,54.5,50.1,29.93,North,0,0.0,0.0,85,0.00,,SKC,0.00,VWS V13.00,2013-09-09 03:35:00,
2013-09-08 21:40:00,54.5,50.1,29.93,North,0,0.0,0.0,85,0.00,,SKC,0.00,VWS V13.00,2013-09-09 03:40:00,
2013-09-08 21:45:00,54.1,49.7,29.93,North,0,0.0,0.0,85,0.00,,SKC,0.00,VWS V13.00,2013-09-09 03:45:00,
2013-09-08 21:50:00,54.0,49.6,29.93,North,0,0.0,0.0,85,0.00,,SKC,0.00,VWS V13.00,2013-09-09 03:50:00,
2013-09-08 21:55:00,54.0,49.6,29.93,North,0,0.0,0.0,85,0.00,,SKC,0.00,VWS V13.00,2013-09-09 03:55:00,
2013-09-08 22:00:00,53.8,49.4,29.93,North,0,0.0,0.0,85,0.00,,SKC,0.00,VWS V13.00,2013-09-09 04:00:00,
2013-09-08 22:01:00,53.6,49.2,29.93,North,0,0.0,0.0,85,0.00,,SKC,0.00,VWS V13.00,2013-09-09 04:01:00,
2013-09-08 22:02:00,53.6,49.2,29.93,North,0,0.0,0.0,85,0.00,,SKC,0.00,VWS V13.00,2013-09-09 04:02:00,
2013-09-08 22:07:00,53.4,49.3,29.93,North,0,0.0,0.0,86,0.00,,SKC,0.00,VWS V13.00,2013-09-09 04:07:00,
2013-09-08 22:12:00,53.2,49.2,29.93,North,0,0.0,0.0,86,0.00,,SKC,0.00,VWS V13.00,2013-09-09 04:12:00,
2013-09-08 22:17:00,53.2,49.2,29.93,North,0,0.0,0.0,86,0.00,,SKC,0.00,VWS V13.00,2013-09-09 04:17:00,
2013-09-08 22:22:00,53.2,49.2,29.93,North,0,0.0,0.0,86,0.00,,SKC,0.00,VWS V13.00,2013-09-09 04:22:00,
2013-09-08 22:27:00,53.4,49.7,29.93,North,0,0.0,0.0,87,0.00,,SKC,0.00,VWS V13.00,2013-09-09 04:27:00,
2013-09-08 22:32:00,53.4,49.7,29.93,North,0,0.0,0.0,87,0.00,,SKC,0.00,VWS V13.00,2013-09-09 04:32:00,
2013-09-08 22:37:00,53.8,50.0,29.93,North,0,0.0,0.0,87,0.00,,SKC,0.00,VWS V13.00,2013-09-09 04:37:00,
2013-09-08 22:40:00,53.8,50.0,29.93,North,0,0.0,0.0,87,0.00,,SKC,0.00,VWS V13.00,2013-09-09 04:40:00,
2013-09-08 22:45:00,54.0,50.2,29.93,North,0,0.0,0.0,87,0.00,,SKC,0.00,VWS V13.00,2013-09-09 04:45:00,
2013-09-08 22:50:00,54.1,50.0,29.93,North,0,0.0,0.0,86,0.00,,SKC,0.00,VWS V13.00,2013-09-09 04:50:00,
2013-09-08 22:55:00,54.1,50.0,29.93,North,0,0.0,0.0,86,0.00,,SKC,0.00,VWS V13.00,2013-09-09 04:55:00,
2013-09-08 23:00:00,54.1,49.7,29.93,North,0,0.0,0.0,85,0.00,,SKC,0.00,VWS V13.00,2013-09-09 05:00:00,
2013-09-08 23:05:00,54.1,49.7,29.93,North,0,0.0,0.0,85,0.00,,SKC,0.00,VWS V13.00,2013-09-09 05:05:00,
2013-09-08 23:10:00,53.8,49.4,29.93,North,0,0.0,0.0,85,0.00,,SKC,0.00,VWS V13.00,2013-09-09 05:10:00,
2013-09-08 23:15:00,53.6,48.9,29.93,North,0,0.0,0.0,84,0.00,,SKC,0.00,VWS V13.00,2013-09-09 05:15:00,
2013-09-08 23:20:00,53.4,49.0,29.93,North,0,0.0,0.0,85,0.00,,SKC,0.00,VWS V13.00,2013-09-09 05:20:00,
2013-09-08 23:25:00,53.2,48.8,29.93,North,0,0.0,0.0,85,0.00,,SKC,0.00,VWS V13.00,2013-09-09 05:25:00,
2013-09-08 23:30:00,53.1,48.7,29.93,North,0,0.0,0.0,85,0.00,,SKC,0.00,VWS V13.00,2013-09-09 05:30:00,
2013-09-08 23:35:00,53.1,48.7,29.93,North,0,0.0,0.0,85,0.00,,SKC,0.00,VWS V13.00,2013-09-09 05:35:00,
2013-09-08 23:40:00,52.9,48.5,29.93,North,0,0.0,0.0,85,0.00,,SKC,0.00,VWS V13.00,2013-09-09 05:40:00,
2013-09-08 23:45:00,52.7,48.3,29.93,North,0,0.0,0.0,85,0.00,,SKC,0.00,VWS V13.00,2013-09-09 05:45:00,
2013-09-08 23:50:00,52.5,48.2,29.93,North,0,0.0,0.0,85,0.00,,SKC,0.00,VWS V13.00,2013-09-09 05:50:00,
2013-09-08 23:55:00,52.3,48.0,29.93,North,0,0.0,0.0,85,0.00,,SKC,0.00,VWS V13.00,2013-09-09 05:55:00,